Time;durP1;ratioP1;P1;durP2;ratioP2;P2;SDS_P1;SDS_P2;PMS_P1;PMS_P2;Temp;Humidity;BMP_temperature;BMP_pressure;BME280_temperature;BME280_humidity;BME280_pressure;Samples;Min_cycle;Max_cycle;Signal;HPM_P1;HPM_P2
2022/05/23 00:00:28;;;;;;;3.50;2.88;;;11.80;99.90;;;;;;5019788;28;20218;-44
2022/05/23 00:02:55;;;;;;;3.67;3.38;;;11.80;99.90;;;;;;5019924;28;20231;-43
2022/05/23 00:05:22;;;;;;;4.32;3.92;;;11.80;99.90;;;;;;5002700;28;20534;-45
2022/05/23 00:07:51;;;;;;;4.38;3.92;;;11.80;99.90;;;;;;5019743;28;20200;-43
2022/05/23 00:10:20;;;;;;;6.03;3.30;;;11.80;99.90;;;;;;5019527;28;20527;-42
2022/05/23 00:12:48;;;;;;;4.80;3.63;;;11.60;99.90;;;;;;5002528;28;20302;-41
2022/05/23 00:15:15;;;;;;;4.25;3.85;;;11.60;99.90;;;;;;5019181;28;20212;-47
2022/05/23 00:17:44;;;;;;;3.25;2.95;;;11.70;99.90;;;;;;5019458;28;20461;-50
2022/05/23 00:20:14;;;;;;;4.40;3.83;;;11.60;99.90;;;;;;5020185;28;20280;-43
2022/05/23 00:22:41;;;;;;;6.10;3.50;;;11.50;99.90;;;;;;5020297;28;20242;-43
2022/05/23 00:25:10;;;;;;;3.47;3.17;;;11.40;99.90;;;;;;5020001;28;20212;-45
2022/05/23 00:27:40;;;;;;;4.15;3.30;;;11.30;99.90;;;;;;5020106;28;20468;-40
2022/05/23 00:30:12;;;;;;;4.13;3.80;;;11.20;99.90;;;;;;5019245;28;20218;-44
2022/05/23 00:35:26;;;;;;;5.90;4.00;;;11.20;99.90;;;;;;5019560;28;20225;-43
2022/05/23 00:37:55;;;;;;;4.82;3.97;;;11.20;99.90;;;;;;5019497;28;20286;-46
2022/05/23 00:43:53;;;;;;;6.53;4.78;;;11.00;99.90;;;;;;4990016;28;20276;-43
2022/05/23 00:46:20;;;;;;;5.15;4.65;;;11.00;99.90;;;;;;4988195;28;20206;-42
2022/05/23 00:48:48;;;;;;;5.22;3.72;;;11.00;99.90;;;;;;4979685;28;20211;-44
2022/05/23 00:51:16;;;;;;;5.00;4.53;;;11.00;99.90;;;;;;4979074;28;20435;-45
2022/05/23 00:53:57;;;;;;;4.03;3.72;;;11.00;99.90;;;;;;4980133;28;20223;-44
2022/05/23 00:56:30;;;;;;;5.40;4.75;;;10.90;99.90;;;;;;4979872;28;20216;-48
2022/05/23 00:59:02;;;;;;;8.13;4.55;;;10.90;99.90;;;;;;4978504;28;20231;-43
2022/05/23 01:01:32;;;;;;;4.35;3.95;;;10.90;99.90;;;;;;4979788;28;20235;-48
2022/05/23 01:04:00;;;;;;;4.22;3.83;;;10.80;99.90;;;;;;4979110;28;20562;-44
2022/05/23 01:06:27;;;;;;;5.20;4.70;;;10.80;99.90;;;;;;4980070;28;20239;-46
2022/05/23 01:08:56;;;;;;;5.63;4.72;;;10.80;99.90;;;;;;4979972;28;20267;-47
2022/05/23 01:11:24;;;;;;;5.68;4.85;;;10.70;99.90;;;;;;4979456;28;20307;-47
2022/05/23 01:13:55;;;;;;;6.72;5.82;;;10.70;99.90;;;;;;4979320;28;20220;-45
2022/05/23 01:16:26;;;;;;;10.02;5.60;;;10.60;99.90;;;;;;4979195;28;20307;-44
2022/05/23 01:18:54;;;;;;;5.97;5.38;;;10.60;99.90;;;;;;4980515;28;20211;-41
2022/05/23 01:21:33;;;;;;;6.82;6.15;;;10.70;99.90;;;;;;4981733;28;20549;-44
2022/05/23 01:24:11;;;;;;;6.10;5.60;;;10.60;99.90;;;;;;4980670;28;20624;-44
2022/05/23 01:26:38;;;;;;;9.65;6.60;;;10.60;99.90;;;;;;4978978;28;20311;-48
2022/05/23 01:29:14;;;;;;;10.13;7.40;;;10.50;99.90;;;;;;4963766;28;20576;-42
2022/05/23 01:31:43;;;;;;;15.63;11.75;;;10.50;99.90;;;;;;4979338;28;20622;-45
2022/05/23 01:34:10;;;;;;;11.48;10.32;;;10.50;99.90;;;;;;4979269;28;20247;-44
2022/05/23 01:36:37;;;;;;;12.55;10.13;;;10.40;99.90;;;;;;4979733;28;20442;-42
2022/05/23 01:39:04;;;;;;;11.40;8.57;;;10.40;99.90;;;;;;4979777;28;20274;-42
2022/05/23 01:41:31;;;;;;;10.63;9.55;;;10.30;99.90;;;;;;4979428;28;20249;-42
2022/05/23 01:43:59;;;;;;;19.45;17.33;;;10.20;99.90;;;;;;4979762;28;20200;-42
2022/05/23 01:46:26;;;;;;;24.80;20.00;;;10.10;99.90;;;;;;4979263;28;20208;-51
2022/05/23 01:48:53;;;;;;;25.67;20.08;;;10.10;99.90;;;;;;4979665;28;20226;-44
2022/05/23 01:51:21;;;;;;;20.05;17.42;;;9.90;99.90;;;;;;4979178;28;20228;-43
2022/05/23 01:53:48;;;;;;;19.02;14.07;;;9.90;99.90;;;;;;4962131;28;20261;-44
2022/05/23 01:56:15;;;;;;;15.82;12.70;;;10.10;99.90;;;;;;4979408;28;20210;-42
2022/05/23 02:01:28;;;;;;;12.85;11.55;;;10.10;99.90;;;;;;4979344;28;20226;-41
2022/05/23 02:03:55;;;;;;;9.30;8.38;;;10.10;99.90;;;;;;4978977;28;20276;-44
2022/05/23 02:06:23;;;;;;;9.00;8.15;;;10.10;99.90;;;;;;4962261;28;20214;-43
2022/05/23 02:08:50;;;;;;;10.93;9.18;;;10.10;99.90;;;;;;4979606;28;20532;-41
2022/05/23 02:11:18;;;;;;;9.48;8.57;;;10.10;99.90;;;;;;4977929;28;20239;-46
2022/05/23 02:13:46;;;;;;;11.77;9.80;;;10.10;99.90;;;;;;4979265;28;20210;-46
2022/05/23 02:16:13;;;;;;;9.23;8.25;;;10.20;99.90;;;;;;4978955;28;20212;-41
2022/05/23 02:18:40;;;;;;;8.55;7.75;;;10.10;99.90;;;;;;4978951;28;20286;-46
2022/05/23 02:21:08;;;;;;;9.75;7.70;;;10.10;99.90;;;;;;4978818;28;20564;-45
2022/05/23 02:23:36;;;;;;;7.80;7.05;;;10.00;99.90;;;;;;4979006;28;20318;-43
2022/05/23 02:26:04;;;;;;;9.00;8.10;;;10.00;99.90;;;;;;4978408;28;20537;-41
2022/05/23 02:28:31;;;;;;;7.88;7.18;;;9.80;99.90;;;;;;4978588;28;20218;-46
2022/05/23 02:30:59;;;;;;;8.30;7.47;;;9.90;99.90;;;;;;4978067;28;20227;-47
2022/05/23 02:33:26;;;;;;;9.48;8.15;;;9.90;99.90;;;;;;4977934;28;20517;-41
2022/05/23 02:35:54;;;;;;;8.90;7.88;;;9.90;99.90;;;;;;4978659;28;20286;-43
2022/05/23 02:38:21;;;;;;;7.65;6.80;;;9.90;99.90;;;;;;4977746;28;20211;-51
2022/05/23 02:40:48;;;;;;;7.78;7.00;;;10.00;99.90;;;;;;4978194;28;20209;-43
2022/05/23 02:43:15;;;;;;;8.07;7.22;;;10.00;99.90;;;;;;4977977;28;20241;-48
2022/05/23 02:45:43;;;;;;;8.93;8.02;;;10.00;99.90;;;;;;4978504;28;20247;-42
2022/05/23 02:48:10;;;;;;;9.70;8.40;;;10.00;99.90;;;;;;4978289;28;20590;-45
2022/05/23 02:50:37;;;;;;;8.50;7.47;;;10.00;99.90;;;;;;4978268;28;20220;-48
2022/05/23 02:53:07;;;;;;;10.98;7.22;;;10.00;99.90;;;;;;4977834;28;20203;-50
2022/05/23 02:55:34;;;;;;;15.52;7.72;;;9.90;99.90;;;;;;4982562;28;20213;-47
2022/05/23 02:58:02;;;;;;;7.22;6.28;;;10.00;99.90;;;;;;4983962;28;20204;-44
2022/05/23 03:00:30;;;;;;;9.77;8.05;;;10.10;99.90;;;;;;4981424;28;20568;-42
2022/05/23 03:03:03;;;;;;;7.82;7.13;;;9.90;99.90;;;;;;4977861;28;20298;-48
2022/05/23 03:05:36;;;;;;;8.13;6.40;;;9.80;99.90;;;;;;4977108;28;20548;-43
2022/05/23 03:08:04;;;;;;;8.88;7.53;;;9.90;99.90;;;;;;4977994;28;20213;-45
2022/05/23 03:10:32;;;;;;;10.00;6.82;;;10.10;99.90;;;;;;4976641;28;20249;-50
2022/05/23 03:12:59;;;;;;;9.63;6.15;;;10.00;99.90;;;;;;5004342;28;20311;-46
2022/05/23 03:15:28;;;;;;;11.35;6.70;;;10.00;99.90;;;;;;5006008;28;20286;-50
2022/05/23 03:17:56;;;;;;;8.30;6.72;;;10.10;99.90;;;;;;5012500;28;20466;-48
2022/05/23 03:20:24;;;;;;;8.57;7.28;;;10.30;99.90;;;;;;5015335;28;20528;-47
2022/05/23 03:28:25;;;;;;;8.00;7.25;;;10.60;99.90;;;;;;5018506;28;20206;-46
2022/05/23 03:30:52;;;;;;;8.00;7.20;;;10.70;99.90;;;;;;5000157;28;20233;-43
2022/05/23 03:33:21;;;;;;;10.85;7.15;;;10.90;99.90;;;;;;5009665;28;20212;-47
2022/05/23 03:35:48;;;;;;;7.18;6.38;;;11.20;99.90;;;;;;5019619;28;20211;-46
2022/05/23 03:38:16;;;;;;;8.25;6.50;;;11.30;99.90;;;;;;5018482;28;20430;-47
2022/05/23 03:40:44;;;;;;;10.02;7.50;;;11.50;99.90;;;;;;5018877;28;20342;-44
2022/05/23 03:43:12;;;;;;;13.73;8.70;;;11.60;99.90;;;;;;5018636;28;20444;-44
2022/05/23 03:45:39;;;;;;;8.73;6.18;;;11.70;99.90;;;;;;5019049;28;20227;-45
2022/05/23 03:48:06;;;;;;;9.32;7.65;;;11.80;99.90;;;;;;5002077;28;20299;-45
2022/05/23 03:50:35;;;;;;;15.35;6.85;;;12.00;99.90;;;;;;5019833;28;20549;-50
2022/05/23 03:53:03;;;;;;;11.73;6.43;;;12.00;99.90;;;;;;5020372;28;20274;-44
2022/05/23 03:55:30;;;;;;;6.38;5.78;;;12.00;99.90;;;;;;5019875;28;20208;-45
2022/05/23 03:57:58;;;;;;;9.15;6.53;;;12.10;99.90;;;;;;5019661;28;20502;-49
2022/05/23 04:00:25;;;;;;;14.80;6.45;;;12.50;99.90;;;;;;5015930;28;20292;-41
2022/05/23 04:02:52;;;;;;;8.50;6.20;;;12.80;99.90;;;;;;5011989;28;20615;-50
2022/05/23 04:05:19;;;;;;;6.50;5.80;;;12.90;99.90;;;;;;5019025;28;20207;-44
2022/05/23 04:07:46;;;;;;;8.82;5.28;;;12.90;99.90;;;;;;5021310;28;20208;-47
2022/05/23 04:10:16;;;;;;;6.50;5.55;;;13.00;99.90;;;;;;5016607;28;20207;-44
2022/05/23 04:12:45;;;;;;;5.93;5.07;;;12.90;99.90;;;;;;4999912;28;20245;-45
2022/05/23 04:15:13;;;;;;;7.38;5.75;;;13.00;99.90;;;;;;4982295;28;20216;-45
2022/05/23 04:17:40;;;;;;;8.60;7.07;;;12.90;99.90;;;;;;4999588;28;20534;-46
2022/05/23 04:20:08;;;;;;;6.68;5.40;;;13.10;99.90;;;;;;5000109;28;20288;-46
2022/05/23 04:22:36;;;;;;;5.35;4.85;;;13.00;99.90;;;;;;5013311;28;21416;-50
2022/05/23 04:25:05;;;;;;;11.05;5.03;;;13.00;99.90;;;;;;5010943;28;20205;-50
2022/05/23 04:27:33;;;;;;;9.43;5.55;;;13.10;99.90;;;;;;5012876;28;20312;-47
2022/05/23 04:30:01;;;;;;;5.78;5.20;;;13.00;99.90;;;;;;5019624;28;20209;-44
2022/05/23 04:35:14;;;;;;;9.02;5.40;;;13.10;99.90;;;;;;5008719;28;20432;-48
2022/05/23 04:37:45;;;;;;;12.73;4.95;;;13.10;99.90;;;;;;5021028;28;20268;-42
2022/05/23 04:40:15;;;;;;;6.18;3.72;;;13.10;99.90;;;;;;5021157;28;20214;-39
2022/05/23 04:42:42;;;;;;;5.13;4.53;;;13.10;99.90;;;;;;5017944;28;20229;-48
2022/05/23 04:45:11;;;;;;;4.25;3.85;;;13.00;99.90;;;;;;5018269;28;20201;-48
2022/05/23 04:50:26;;;;;;;14.18;5.00;;;12.90;99.90;;;;;;5013488;28;20201;-42
2022/05/23 04:52:54;;;;;;;5.45;4.90;;;12.90;99.90;;;;;;4997440;28;20256;-48
2022/05/23 04:55:22;;;;;;;8.57;4.47;;;12.90;99.90;;;;;;5000062;28;20216;-44
2022/05/23 04:57:50;;;;;;;6.88;5.35;;;13.00;99.90;;;;;;5004871;28;20219;-46
2022/05/23 05:00:19;;;;;;;5.72;4.82;;;13.10;99.90;;;;;;5005496;28;20213;-44
2022/05/23 05:02:48;;;;;;;5.53;4.90;;;13.20;99.90;;;;;;5004167;28;20240;-41
2022/05/23 05:05:16;;;;;;;6.05;4.93;;;13.20;99.90;;;;;;4997937;28;20198;-46
2022/05/23 05:07:44;;;;;;;6.45;4.70;;;13.20;99.90;;;;;;4998249;28;20198;-46
2022/05/23 05:10:11;;;;;;;6.00;5.50;;;13.20;99.90;;;;;;4997383;28;20197;-45
2022/05/23 05:12:39;;;;;;;10.45;5.25;;;13.40;99.90;;;;;;4997671;28;20237;-45
2022/05/23 05:15:08;;;;;;;6.55;5.88;;;13.40;99.90;;;;;;4996722;28;20922;-50
2022/05/23 05:17:35;;;;;;;8.50;6.70;;;13.40;99.90;;;;;;4992804;28;20205;-41
2022/05/23 05:20:04;;;;;;;5.75;5.22;;;13.50;99.90;;;;;;4978649;28;20229;-44
2022/05/23 05:22:31;;;;;;;12.68;6.70;;;13.50;99.90;;;;;;5008495;28;20221;-47
2022/05/23 05:24:58;;;;;;;7.07;5.50;;;13.60;99.90;;;;;;5016530;28;20204;-50
2022/05/23 05:27:26;;;;;;;8.15;6.07;;;13.60;99.90;;;;;;5016439;28;20488;-44
2022/05/23 05:29:53;;;;;;;6.47;4.95;;;13.70;99.90;;;;;;4997533;28;20475;-47
2022/05/23 05:32:38;;;;;;;5.55;5.05;;;13.90;99.90;;;;;;4997006;28;20312;-45
2022/05/23 05:35:09;;;;;;;8.10;5.10;;;14.00;99.90;;;;;;4997156;28;20213;-43
2022/05/23 05:37:44;;;;;;;6.65;5.75;;;14.00;99.90;;;;;;4996946;28;20268;-46
2022/05/23 05:40:13;;;;;;;6.10;5.60;;;14.00;99.90;;;;;;4996933;28;20316;-46
2022/05/23 05:42:44;;;;;;;5.82;5.22;;;14.00;99.90;;;;;;5016263;28;20225;-47
2022/05/23 05:45:22;;;;;;;6.35;5.18;;;14.00;99.90;;;;;;5016874;28;20200;-47
2022/05/23 05:47:52;;;;;;;6.60;5.53;;;13.90;99.90;;;;;;5016659;28;20268;-46
2022/05/23 05:50:41;;;;;;;8.70;5.22;;;14.10;99.90;;;;;;5007298;28;20526;-44
2022/05/23 05:53:14;;;;;;;8.45;5.82;;;14.20;99.90;;;;;;4987417;28;20216;-49
2022/05/23 05:55:42;;;;;;;8.02;6.35;;;14.40;99.90;;;;;;4989373;28;20224;-45
2022/05/23 05:58:10;;;;;;;8.77;5.93;;;14.60;99.90;;;;;;4990195;28;20265;-45
2022/05/23 06:00:40;;;;;;;7.47;6.05;;;14.70;99.90;;;;;;4988249;28;20213;-44
2022/05/23 06:03:08;;;;;;;5.35;4.85;;;14.80;99.90;;;;;;4990854;28;20281;-44
2022/05/23 06:11:23;;;;;;;6.55;5.45;;;15.00;99.90;;;;;;4991511;28;20278;-47
2022/05/23 06:11:24;;;;;;;8.40;4.90;;;15.00;99.90;;;;;;4989261;28;20329;-45
2022/05/23 06:13:55;;;;;;;7.95;4.70;;;15.20;99.90;;;;;;4988460;28;20215;-46
2022/05/23 06:16:24;;;;;;;6.00;4.82;;;15.60;99.90;;;;;;4993189;28;20234;-43
2022/05/23 06:18:51;;;;;;;5.57;5.07;;;16.10;99.90;;;;;;4981805;28;20208;-41
2022/05/23 06:21:19;;;;;;;6.87;4.17;;;16.60;99.90;;;;;;4989931;28;20480;-44
2022/05/23 06:23:46;;;;;;;6.13;5.17;;;17.30;99.90;;;;;;4996521;28;20545;-47
2022/05/23 06:26:21;;;;;;;4.90;4.40;;;18.10;99.90;;;;;;4996915;28;20439;-44
2022/05/23 06:28:50;;;;;;;3.93;3.60;;;18.70;99.90;;;;;;4996536;28;20419;-44
2022/05/23 06:31:19;;;;;;;7.13;5.20;;;18.60;99.90;;;;;;4996035;28;20831;-45
2022/05/23 06:33:46;;;;;;;6.17;4.13;;;19.10;99.90;;;;;;4995727;28;20719;-44
2022/05/23 06:36:15;;;;;;;9.17;5.17;;;19.80;99.90;;;;;;4996772;28;20420;-45
2022/05/23 06:38:43;;;;;;;7.43;4.40;;;20.90;99.90;;;;;;4996805;28;20772;-41
2022/05/23 06:41:10;;;;;;;4.73;3.57;;;21.40;99.90;;;;;;4996638;28;20523;-47
2022/05/23 06:43:40;;;;;;;5.00;4.50;;;21.20;99.90;;;;;;4996469;28;20470;-47
2022/05/23 06:46:09;;;;;;;5.70;4.60;;;21.50;99.90;;;;;;4996747;28;20426;-44
2022/05/23 06:48:37;;;;;;;5.00;4.50;;;21.60;99.90;;;;;;4996475;28;20449;-46
2022/05/23 06:51:05;;;;;;;4.77;4.37;;;22.20;99.90;;;;;;4995674;28;20790;-44
2022/05/23 06:53:33;;;;;;;6.43;3.80;;;22.90;99.90;;;;;;4995929;28;20530;-48
2022/05/23 06:56:00;;;;;;;7.30;4.23;;;22.90;99.90;;;;;;4996182;28;20414;-42
2022/05/23 06:58:27;;;;;;;4.20;3.30;;;23.60;99.90;;;;;;4995548;28;20476;-45
2022/05/23 07:00:55;;;;;;;5.10;4.60;;;23.70;98.60;;;;;;4995824;28;20511;-42
2022/05/23 07:03:23;;;;;;;5.50;4.90;;;23.30;98.70;;;;;;4994909;28;20522;-48
2022/05/23 07:14:10;;;;;;;3.30;3.00;;;26.40;88.90;;;;;;4999955;28;20442;-49
2022/05/23 07:16:37;;;;;;;5.10;4.60;;;26.40;87.00;;;;;;4999423;28;20445;-46
2022/05/23 07:19:04;;;;;;;3.30;3.00;;;26.80;82.40;;;;;;4999780;28;20447;-46
2022/05/23 07:21:32;;;;;;;3.90;3.20;;;26.50;81.00;;;;;;4999052;28;20455;-43
2022/05/23 07:23:59;;;;;;;3.63;3.33;;;27.80;75.40;;;;;;4998962;28;20680;-51
2022/05/23 07:26:27;;;;;;;4.70;3.47;;;28.30;73.00;;;;;;4993194;28;20449;-43
2022/05/23 07:28:55;;;;;;;3.00;2.70;;;28.50;69.80;;;;;;4992009;28;20699;-42
2022/05/23 07:31:23;;;;;;;3.87;2.93;;;28.50;67.90;;;;;;4994119;28;20461;-43
2022/05/23 07:33:51;;;;;;;2.90;2.70;;;26.60;71.30;;;;;;4992450;28;20441;-43
2022/05/23 07:36:19;;;;;;;2.63;2.40;;;26.20;73.30;;;;;;5000305;28;20867;-46
2022/05/23 07:38:47;;;;;;;2.53;2.33;;;27.10;69.10;;;;;;4987248;28;20485;-45
2022/05/23 07:41:15;;;;;;;9.33;3.43;;;28.00;67.70;;;;;;4980416;28;20491;-45
2022/05/23 07:43:42;;;;;;;2.60;2.40;;;28.80;64.30;;;;;;4981835;28;20478;-45
2022/05/23 07:46:15;;;;;;;6.93;3.23;;;29.30;64.90;;;;;;4982015;28;20440;-44
2022/05/23 07:48:48;;;;;;;2.57;2.37;;;29.40;62.90;;;;;;4980246;28;20451;-42
2022/05/23 07:51:18;;;;;;;2.67;2.47;;;27.10;67.30;;;;;;4979442;28;20487;-46
2022/05/23 08:02:04;;;;;;;2.40;1.83;;;31.00;58.00;;;;;;4984018;28;20459;-45
2022/05/23 08:04:32;;;;;;;2.67;2.43;;;30.10;57.50;;;;;;4998622;28;20503;-42
2022/05/23 08:06:59;;;;;;;4.67;2.17;;;30.40;57.90;;;;;;4998948;28;20686;-45
2022/05/23 08:09:26;;;;;;;2.37;2.17;;;29.70;58.40;;;;;;4998077;28;20445;-44
2022/05/23 08:11:53;;;;;;;1.80;1.70;;;29.60;58.40;;;;;;4998743;28;20463;-44
2022/05/23 08:14:22;;;;;;;1.70;1.60;;;28.40;59.50;;;;;;4998208;28;20607;-43
2022/05/23 08:16:51;;;;;;;2.03;1.87;;;27.70;60.70;;;;;;4998446;28;20443;-47
2022/05/23 08:19:22;;;;;;;4.03;1.90;;;28.00;60.70;;;;;;4998591;28;20440;-41
2022/05/23 08:21:54;;;;;;;4.50;1.90;;;29.60;58.70;;;;;;4998219;28;20456;-45
2022/05/23 08:24:21;;;;;;;1.53;1.43;;;28.10;60.00;;;;;;4998237;28;20554;-49
2022/05/23 08:26:53;;;;;;;1.93;1.80;;;29.20;57.50;;;;;;4994468;28;20447;-43
2022/05/23 08:29:21;;;;;;;8.80;2.47;;;30.90;55.70;;;;;;4991573;28;20448;-46
2022/05/23 08:31:51;;;;;;;2.00;1.83;;;31.40;54.90;;;;;;4990058;28;20463;-45
2022/05/23 08:34:22;;;;;;;3.10;1.93;;;31.90;54.10;;;;;;4991647;28;20452;-42
2022/05/23 08:36:51;;;;;;;3.13;1.83;;;30.50;55.00;;;;;;4989789;28;20526;-43
2022/05/23 08:39:19;;;;;;;2.43;2.23;;;31.20;55.20;;;;;;4991655;28;20700;-49
2022/05/23 08:41:48;;;;;;;4.77;2.43;;;31.10;54.70;;;;;;4990150;28;20539;-45
2022/05/23 08:44:36;;;;;;;1.97;1.77;;;32.00;53.60;;;;;;4991983;28;20488;-48
2022/05/23 08:47:14;;;;;;;2.20;2.00;;;33.70;51.30;;;;;;4990387;28;20720;-50
2022/05/23 08:50:08;;;;;;;1.97;1.70;;;33.10;50.70;;;;;;4995359;28;20434;-47
2022/05/23 08:52:57;;;;;;;2.07;1.73;;;34.60;49.80;;;;;;4996454;28;20467;-44
2022/05/23 08:55:39;;;;;;;3.37;2.27;;;33.80;49.20;;;;;;4997428;28;20458;-49
2022/05/23 08:58:28;;;;;;;4.67;2.10;;;33.30;50.10;;;;;;4994817;28;20677;-45
2022/05/23 09:01:02;;;;;;;2.63;1.90;;;34.20;49.20;;;;;;4991042;28;20448;-48
2022/05/23 09:03:34;;;;;;;3.37;3.07;;;33.90;48.80;;;;;;4993190;28;20443;-44
2022/05/23 09:06:27;;;;;;;3.30;2.63;;;32.90;49.80;;;;;;4990197;28;20443;-47
2022/05/23 09:08:58;;;;;;;2.00;1.80;;;32.50;49.50;;;;;;4995974;28;20667;-46
2022/05/23 09:11:35;;;;;;;2.40;1.43;;;33.00;49.90;;;;;;4977035;28;20863;-47
2022/05/23 09:14:04;;;;;;;3.17;2.30;;;33.20;49.40;;;;;;4978574;28;20490;-44
2022/05/23 09:16:40;;;;;;;2.33;1.50;;;33.20;48.30;;;;;;4979012;28;20434;-45
2022/05/23 09:19:34;;;;;;;4.47;1.90;;;32.50;48.20;;;;;;4978488;28;20447;-44
2022/05/23 09:22:23;;;;;;;1.50;1.40;;;30.60;50.50;;;;;;4978160;28;20663;-43
2022/05/23 09:24:57;;;;;;;2.20;1.60;;;31.40;50.70;;;;;;4978075;28;20483;-46
2022/05/23 09:27:35;;;;;;;4.03;2.47;;;32.30;49.40;;;;;;4960824;28;20503;-47
2022/05/23 09:30:08;;;;;;;1.90;1.80;;;31.30;50.10;;;;;;4976722;28;20451;-45
2022/05/23 09:33:00;;;;;;;1.90;1.50;;;28.30;53.00;;;;;;4977583;28;20453;-45
2022/05/23 09:35:46;;;;;;;2.07;1.50;;;26.40;57.70;;;;;;4977862;28;20471;-44
2022/05/23 09:38:26;;;;;;;2.93;1.60;;;25.50;59.30;;;;;;4977304;28;20524;-44
2022/05/23 09:40:54;;;;;;;4.57;2.10;;;24.10;60.60;;;;;;4977621;28;20450;-43
2022/05/23 09:49:23;;;;;;;1.60;1.50;;;21.40;69.80;;;;;;4977668;28;20456;-45
2022/05/23 09:51:58;;;;;;;3.13;1.47;;;21.20;71.60;;;;;;4977762;28;20440;-48
2022/05/23 09:54:28;;;;;;;2.80;1.90;;;20.90;72.40;;;;;;4977117;28;20444;-43
2022/05/23 09:56:59;;;;;;;6.00;1.80;;;20.80;75.30;;;;;;4977780;28;20418;-44
2022/05/23 09:59:34;;;;;;;2.10;1.30;;;21.10;76.60;;;;;;4977724;28;20418;-51
2022/05/23 10:02:23;;;;;;;1.70;1.60;;;21.30;73.00;;;;;;4981400;28;20601;-47
2022/05/23 10:04:51;;;;;;;3.00;1.40;;;20.90;72.90;;;;;;4996330;28;20819;-42
2022/05/23 10:07:27;;;;;;;1.83;1.37;;;20.90;74.20;;;;;;4997064;28;20426;-48
2022/05/23 10:10:18;;;;;;;1.50;1.40;;;21.00;74.20;;;;;;4996326;28;20413;-43
2022/05/23 10:12:48;;;;;;;2.23;1.30;;;21.10;75.40;;;;;;4996190;28;20513;-45
2022/05/23 10:15:30;;;;;;;2.17;1.90;;;21.30;77.20;;;;;;4996808;28;20423;-48
2022/05/23 10:18:07;;;;;;;1.30;1.20;;;21.30;74.70;;;;;;4996238;28;20627;-42
2022/05/23 10:20:38;;;;;;;1.07;1.00;;;21.10;73.50;;;;;;4996072;28;20660;-41
2022/05/23 10:23:15;;;;;;;1.10;1.03;;;21.10;76.30;;;;;;4996231;28;20433;-41
2022/05/23 10:26:18;;;;;;;5.80;1.97;;;21.30;75.60;;;;;;4996512;28;20485;-42
2022/05/23 10:28:52;;;;;;;2.10;1.33;;;21.10;74.90;;;;;;4996657;28;20420;-43
2022/05/23 10:31:28;;;;;;;2.17;1.30;;;21.30;76.30;;;;;;4995936;28;20455;-45
2022/05/23 10:34:37;;;;;;;1.43;1.20;;;21.30;75.60;;;;;;4996075;28;20474;-44
2022/05/23 10:37:11;;;;;;;1.17;1.13;;;21.20;76.10;;;;;;4976244;28;20416;-43
2022/05/23 10:42:25;;;;;;;1.10;1.00;;;20.50;77.10;;;;;;4996296;28;20426;-43
2022/05/23 10:45:32;;;;;;;4.00;1.57;;;20.70;78.10;;;;;;4995407;28;20448;-44
2022/05/23 10:48:48;;;;;;;2.20;1.10;;;21.10;75.70;;;;;;4996320;28;20677;-44
2022/05/23 10:51:23;;;;;;;1.30;1.20;;;21.10;74.40;;;;;;4935504;29;20444;-43
2022/05/23 10:54:05;;;;;;;1.47;1.37;;;21.30;72.90;;;;;;4935614;29;20411;-45
2022/05/23 10:56:43;;;;;;;1.77;1.50;;;21.10;73.20;;;;;;4974610;28;20756;-47
2022/05/23 10:59:36;;;;;;;1.50;1.40;;;20.80;76.20;;;;;;4996204;28;20429;-44
2022/05/23 11:02:16;;;;;;;1.43;1.20;;;20.70;77.00;;;;;;4995787;28;20460;-40
2022/05/23 11:04:57;;;;;;;1.10;1.00;;;20.60;76.30;;;;;;4995597;28;20837;-45
2022/05/23 11:07:47;;;;;;;1.63;1.53;;;20.70;76.70;;;;;;4994114;28;20791;-46
2022/05/23 11:10:40;;;;;;;1.80;1.53;;;20.90;78.40;;;;;;4994807;28;20416;-41
2022/05/23 11:13:35;;;;;;;1.50;1.20;;;21.40;77.00;;;;;;4995522;28;20510;-45
2022/05/23 11:16:18;;;;;;;1.43;1.33;;;21.90;74.50;;;;;;4996297;28;20416;-42
2022/05/23 11:19:04;;;;;;;1.67;1.47;;;22.20;71.80;;;;;;4995276;28;20442;-43
2022/05/23 11:21:46;;;;;;;2.10;1.63;;;22.20;72.10;;;;;;4995413;28;20828;-44
2022/05/23 11:24:27;;;;;;;1.20;1.07;;;22.30;72.90;;;;;;4995131;28;20808;-46
2022/05/23 11:33:41;;;;;;;1.73;1.10;;;22.10;71.40;;;;;;4995521;28;20414;-45
2022/05/23 11:35:30;;;;;;;1.33;1.23;;;21.40;73.70;;;;;;4995277;28;20435;-42
2022/05/23 11:38:01;;;;;;;1.53;1.30;;;21.60;73.70;;;;;;4995868;28;20408;-45
2022/05/23 11:40:28;;;;;;;1.40;1.30;;;21.60;73.20;;;;;;4995293;28;20767;-46
2022/05/23 11:43:02;;;;;;;6.60;1.83;;;21.60;73.70;;;;;;4995364;28;20490;-48
2022/05/23 11:46:05;;;;;;;3.53;1.67;;;21.50;73.90;;;;;;4995264;28;20843;-44
2022/05/23 11:48:41;;;;;;;4.43;1.43;;;21.60;75.40;;;;;;4995529;28;20794;-46
2022/05/23 11:51:23;;;;;;;1.70;1.50;;;22.10;74.10;;;;;;4995301;28;20492;-46
2022/05/23 11:54:10;;;;;;;2.53;1.40;;;22.40;72.90;;;;;;4999316;28;20435;-43
2022/05/23 11:56:39;;;;;;;1.80;1.30;;;22.50;69.00;;;;;;4998924;28;20449;-46
2022/05/23 11:59:09;;;;;;;3.13;1.43;;;22.30;69.70;;;;;;4999340;28;20427;-46
2022/05/23 12:01:37;;;;;;;1.60;1.30;;;22.30;68.90;;;;;;4999014;28;20455;-46
2022/05/23 12:04:04;;;;;;;1.70;1.30;;;22.30;69.70;;;;;;4996212;28;20508;-45
2022/05/23 12:06:32;;;;;;;1.40;1.30;;;22.60;69.30;;;;;;5003214;28;20464;-44
2022/05/23 12:09:24;;;;;;;1.80;1.70;;;22.70;70.30;;;;;;5018164;28;20438;-48
2022/05/23 12:12:13;;;;;;;1.80;1.57;;;22.60;68.60;;;;;;4979921;28;20817;-45
2022/05/23 12:14:40;;;;;;;2.00;1.43;;;22.70;70.00;;;;;;4990282;28;20514;-45
2022/05/23 12:17:33;;;;;;;3.90;1.43;;;23.10;70.60;;;;;;4998258;28;20454;-47
2022/05/23 12:20:23;;;;;;;3.67;1.50;;;23.30;68.70;;;;;;4999052;28;20427;-44
2022/05/23 12:23:15;;;;;;;3.30;2.10;;;23.30;69.00;;;;;;5000095;28;20726;-51
2022/05/23 12:26:04;;;;;;;2.07;1.37;;;22.60;67.80;;;;;;5003247;28;20478;-48
2022/05/23 12:28:46;;;;;;;2.17;1.23;;;22.30;70.40;;;;;;5003549;28;20516;-45
2022/05/23 12:31:17;;;;;;;3.57;1.50;;;22.20;69.20;;;;;;4999633;28;20492;-46
2022/05/23 12:33:51;;;;;;;2.00;1.20;;;22.10;70.10;;;;;;4997467;28;20439;-45
2022/05/23 12:36:22;;;;;;;1.63;1.53;;;22.30;70.00;;;;;;4997172;28;20807;-44
2022/05/23 12:39:05;;;;;;;1.87;1.40;;;22.50;68.60;;;;;;4998737;28;20597;-47
2022/05/23 12:41:51;;;;;;;1.30;1.20;;;22.50;68.20;;;;;;4994909;28;20708;-43
2022/05/23 12:44:31;;;;;;;1.90;1.43;;;22.80;68.60;;;;;;4998217;28;20440;-45
2022/05/23 12:47:07;;;;;;;1.60;1.50;;;23.10;67.20;;;;;;4998238;28;20526;-48
2022/05/23 12:49:39;;;;;;;10.93;2.20;;;22.90;66.50;;;;;;4998771;28;20432;-42
2022/05/23 12:52:15;;;;;;;1.27;1.17;;;22.90;65.90;;;;;;4997723;28;20869;-45
2022/05/23 12:55:08;;;;;;;1.53;1.23;;;23.00;64.90;;;;;;4998422;28;20435;-44
2022/05/23 12:58:13;;;;;;;3.70;1.80;;;23.50;64.60;;;;;;4997625;28;20439;-49
2022/05/23 13:00:47;;;;;;;1.17;1.07;;;23.80;64.20;;;;;;4989212;28;20451;-44
2022/05/23 13:03:32;;;;;;;2.67;1.63;;;23.50;64.80;;;;;;4998775;28;20503;-42
2022/05/23 13:06:16;;;;;;;4.20;2.27;;;23.20;65.10;;;;;;4999216;28;20608;-40
2022/05/23 13:08:53;;;;;;;2.00;0.87;;;22.90;65.60;;;;;;4997559;28;20804;-45
2022/05/23 13:11:34;;;;;;;4.53;1.97;;;22.90;66.20;;;;;;4997295;28;20471;-43
2022/05/23 13:14:02;;;;;;;1.17;1.10;;;23.00;66.50;;;;;;4997248;28;20409;-46
2022/05/23 13:16:32;;;;;;;1.40;1.30;;;22.70;67.30;;;;;;4997484;28;20506;-45
2022/05/23 13:22:08;;;;;;;1.30;1.20;;;22.70;67.10;;;;;;4997470;28;20468;-44
2022/05/23 13:24:50;;;;;;;3.53;1.23;;;22.70;66.40;;;;;;5010046;28;20413;-43
2022/05/23 13:27:25;;;;;;;1.63;1.33;;;23.10;65.20;;;;;;5017402;28;20434;-46
2022/05/23 13:29:56;;;;;;;1.60;1.50;;;22.80;63.50;;;;;;4987999;28;20444;-42
2022/05/23 13:32:24;;;;;;;1.40;1.30;;;22.60;65.00;;;;;;4981013;28;20438;-42
2022/05/23 13:34:51;;;;;;;1.40;1.30;;;22.80;66.50;;;;;;4976062;28;20792;-44
2022/05/23 13:37:34;;;;;;;2.07;1.20;;;23.20;65.50;;;;;;4987393;28;20643;-45
2022/05/23 13:40:21;;;;;;;1.23;1.17;;;23.20;64.50;;;;;;4980143;28;20539;-47
2022/05/23 13:42:48;;;;;;;1.50;1.40;;;22.80;66.30;;;;;;4980521;28;20790;-47
2022/05/23 13:45:23;;;;;;;1.43;1.20;;;23.20;65.20;;;;;;4991587;28;20497;-44
2022/05/23 13:47:58;;;;;;;1.07;1.00;;;23.40;61.30;;;;;;4981545;28;20652;-41
2022/05/23 13:50:35;;;;;;;1.30;1.13;;;23.40;60.30;;;;;;4981354;28;20442;-46
2022/05/23 13:53:37;;;;;;;1.57;1.20;;;23.10;61.10;;;;;;4979584;28;20470;-45
2022/05/23 13:56:05;;;;;;;9.40;1.63;;;23.30;61.30;;;;;;4980073;28;20419;-46
2022/05/23 13:58:39;;;;;;;0.87;0.87;;;23.40;61.70;;;;;;4985235;28;20625;-45
2022/05/23 14:01:18;;;;;;;3.23;1.23;;;23.20;61.10;;;;;;4978117;28;20438;-45
2022/05/23 14:03:50;;;;;;;2.50;1.23;;;23.00;61.90;;;;;;4979270;28;20643;-43
2022/05/23 14:06:23;;;;;;;1.73;1.40;;;23.00;60.10;;;;;;4977528;28;20696;-47
2022/05/23 14:08:57;;;;;;;1.40;1.30;;;23.00;59.90;;;;;;4976368;28;20471;-44
2022/05/23 14:11:32;;;;;;;5.40;1.33;;;22.70;59.90;;;;;;4986854;28;20479;-47